Terminal Aerodrome Forecast
Issued by NWS Jackson, MS

Home | Current Version | Previous Version | Text Only | Print | Product List | Glossary On
Versions: 1 2 3 4 5 6 7 8 9 10 11 12 13 14 15
000
FTUS44 KMEG 260759 AAA
TAFTUP
TAF AMD
KTUP 260759Z 2608/2706 01008KT P6SM VCSH FEW040 OVC080
      TEMPO 2608/2611 5SM -RA BR OVC020
     FM261400 36012KT 6SM -RA BR OVC009
     FM262000 01012KT P6SM OVC025
     FM270300 01003KT P6SM BKN100
      AMD NOT SKED=

USA.gov is the U.S. government's official web portal to all federal, state and local government web resources and services.